»·PEaware :: DAL1163 KSAN-KDEN

DAL1163 :: KSAN-KDEN

FLIGHT INFORMATION

Flight Status: Arrived
Operator:
Delta Air Lines
More flights by this operator :: More flights under this callsign
Pilot: Alli C. (3122)
Aircraft: BOEING 757-200
(B752)
More flights by this aircraft type
Origin: KSAN San Diego Intl-Lindbergh
United States
Destination: KDEN Denver Intl
United States
More flights between these airports :: More routes between these airports
Route: + / OURAY LDORA2
File this flight plan on PilotEdge
Remarks: PBN / A1B3B4B5C4D4O4 DOF / 171007 REG / N627DL EET / KZDV0049 SEL / ABCK OPR / DAL RMK / TCAS
Altitude:
(Current/Filed)
35,000ft
Speed:
(Current/Filed)
460kts
Departed: 07-Oct-17 03:07 PM
Arrived: 07-Oct-17 05:06 PM
Distance/Time
Traveled:
740nm/1:59
Distance/Time
To Go:
Arrived

Flight Plot

Page will automatically refresh every two minutes.

Flight plan parsing failed; only flown route is shown


Map Options




Map Legend


Flown Route
Filed Route
Departure Airport
Arrival Airport
Navaid (VOR, NDB)
Fix

Horizontal Profiles

Position Reports

Time Latitude Longitude Heading Altitude Ground
Speed
07-Oct-17 14:43 32.731867 -117.195821 247 29ft 0kts
07-Oct-17 14:44 32.731867 -117.195821 247 29ft 0kts
07-Oct-17 14:45 32.731867 -117.195821 247 29ft 0kts
07-Oct-17 14:46 32.731867 -117.195821 247 29ft 0kts
07-Oct-17 14:47 32.731867 -117.195821 247 29ft 0kts
07-Oct-17 14:48 32.731867 -117.195821 247 28ft 0kts
07-Oct-17 14:49 32.731867 -117.195821 247 28ft 0kts
07-Oct-17 14:50 32.731867 -117.195821 247 28ft 0kts
07-Oct-17 14:51 32.731867 -117.195821 247 28ft 0kts
07-Oct-17 14:52 32.731867 -117.195821 247 28ft 0kts
07-Oct-17 14:53 32.731867 -117.195821 247 28ft 0kts
07-Oct-17 14:54 32.731867 -117.195821 247 28ft 0kts
07-Oct-17 14:55 32.731867 -117.195821 247 28ft 0kts
07-Oct-17 14:56 32.731867 -117.195821 247 28ft 0kts
07-Oct-17 14:57 32.731867 -117.195820 247 29ft 0kts
07-Oct-17 14:58 32.731931 -117.195236 304 28ft 2kts
07-Oct-17 14:59 32.731689 -117.195057 355 28ft 0kts
07-Oct-17 15:00 32.731689 -117.195057 355 28ft 0kts
07-Oct-17 15:01 32.731689 -117.195057 355 28ft 0kts
07-Oct-17 15:02 32.731689 -117.195057 355 28ft 0kts
07-Oct-17 15:03 32.731689 -117.195057 355 28ft 0kts
07-Oct-17 15:04 32.732046 -117.194944 25 28ft 4kts
07-Oct-17 15:05 32.733402 -117.193607 88 28ft 8kts
07-Oct-17 15:06 32.732256 -117.188532 106 28ft 24kts
07-Oct-17 15:07 32.730419 -117.180980 106 28ft 23kts
07-Oct-17 15:08 32.729509 -117.176802 75 28ft 0kts
07-Oct-17 15:09 32.729509 -117.176802 75 28ft 0kts
07-Oct-17 15:10 32.729867 -117.175987 20 28ft 9kts
07-Oct-17 15:11 32.732740 -117.186188 287 28ft 118kts
07-Oct-17 15:12 32.744409 -117.238303 294 1552ft 180kts
07-Oct-17 15:13 32.744273 -117.304323 224 3250ft 257kts
07-Oct-17 15:14 32.679894 -117.287417 137 6692ft 281kts
07-Oct-17 15:15 32.631093 -117.218217 96 10002ft 292kts
07-Oct-17 15:16 32.621344 -117.113743 95 11915ft 354kts
07-Oct-17 15:17 32.609968 -116.991255 96 14665ft 385kts
07-Oct-17 15:18 32.613059 -116.863438 75 17297ft 404kts
07-Oct-17 15:19 32.670745 -116.752924 30 19706ft 411kts
07-Oct-17 15:20 32.775955 -116.699693 18 22018ft 419kts
07-Oct-17 15:21 32.884719 -116.647476 18 22880ft 424kts
07-Oct-17 15:22 32.993117 -116.594490 18 22887ft 425kts
07-Oct-17 15:23 33.102741 -116.537774 19 24612ft 435kts
07-Oct-17 15:24 33.197261 -116.487739 21 26300ft 443kts
07-Oct-17 15:25 33.309812 -116.425211 19 28005ft 452kts
07-Oct-17 15:26 33.417375 -116.347027 43 29571ft 474kts
07-Oct-17 15:27 33.495649 -116.220853 50 30893ft 488kts
07-Oct-17 15:28 33.575106 -116.088775 50 32410ft 490kts
07-Oct-17 15:29 33.634923 -115.942085 65 34051ft 494kts
07-Oct-17 15:30 33.683850 -115.788837 65 34738ft 493kts
07-Oct-17 15:31 33.732395 -115.635131 64 34751ft 493kts
07-Oct-17 15:32 33.810977 -115.508028 37 34763ft 476kts
07-Oct-17 15:33 33.909019 -115.401738 36 34936ft 475kts
07-Oct-17 15:34 34.003915 -115.299926 36 34962ft 475kts
07-Oct-17 15:35 34.101803 -115.194770 36 34829ft 475kts
07-Oct-17 15:36 34.198035 -115.091073 36 34833ft 475kts
07-Oct-17 15:37 34.296148 -114.985017 36 34833ft 475kts
07-Oct-17 15:38 34.393883 -114.879030 36 34825ft 475kts
07-Oct-17 15:39 34.491490 -114.772832 36 34834ft 475kts
07-Oct-17 15:40 34.589281 -114.666081 36 34834ft 475kts
07-Oct-17 15:41 34.686883 -114.559185 36 34835ft 475kts
07-Oct-17 15:42 34.777958 -114.443730 54 34838ft 486kts
07-Oct-17 15:43 34.841578 -114.302910 57 34914ft 488kts
07-Oct-17 15:44 34.905417 -114.158343 57 34990ft 488kts
07-Oct-17 15:45 34.969189 -114.012936 57 34991ft 488kts
07-Oct-17 15:46 35.032748 -113.867346 57 34992ft 488kts
07-Oct-17 15:47 35.096184 -113.721404 57 34993ft 488kts
07-Oct-17 15:48 35.157584 -113.579554 57 34999ft 488kts
07-Oct-17 15:49 35.220523 -113.433521 57 35000ft 488kts
07-Oct-17 15:50 35.282905 -113.288156 58 34992ft 488kts
07-Oct-17 15:51 35.345454 -113.141750 58 34994ft 488kts
07-Oct-17 15:52 35.408021 -112.994675 58 34997ft 488kts
07-Oct-17 15:53 35.470301 -112.847623 58 35152ft 488kts
07-Oct-17 15:54 35.532498 -112.700118 58 35158ft 488kts
07-Oct-17 15:55 35.595199 -112.550849 59 35159ft 495kts
07-Oct-17 15:56 35.657942 -112.400616 59 35161ft 495kts
07-Oct-17 15:57 35.719023 -112.253787 59 35154ft 495kts
07-Oct-17 15:58 35.781506 -112.102921 60 35156ft 494kts
07-Oct-17 15:59 35.843106 -111.953494 60 35156ft 493kts
07-Oct-17 16:00 35.894396 -111.828546 60 35157ft 493kts
07-Oct-17 16:01 35.966209 -111.652805 60 35158ft 493kts
07-Oct-17 16:02 36.027374 -111.502378 60 35159ft 493kts
07-Oct-17 16:03 36.078241 -111.376734 60 35156ft 493kts
07-Oct-17 16:05 36.149440 -111.210246 55 35023ft 491kts
07-Oct-17 16:05 36.208038 -111.089980 56 35021ft 491kts
07-Oct-17 16:07 36.289330 -110.921244 56 34996ft 494kts
07-Oct-17 16:07 36.347537 -110.799736 56 34996ft 493kts
07-Oct-17 16:08 36.417249 -110.653649 56 34997ft 493kts
07-Oct-17 16:10 36.498151 -110.483315 56 34998ft 493kts
07-Oct-17 16:10 36.556050 -110.360877 56 34999ft 493kts
07-Oct-17 16:11 36.623198 -110.218324 57 35024ft 494kts
07-Oct-17 16:12 36.692272 -110.071039 57 35127ft 493kts
07-Oct-17 16:13 36.761035 -109.923762 57 35129ft 493kts
07-Oct-17 16:14 36.829669 -109.776110 57 35130ft 493kts
07-Oct-17 16:15 36.897963 -109.628539 57 35129ft 493kts
07-Oct-17 16:16 36.966194 -109.480428 57 35133ft 494kts
07-Oct-17 16:17 37.032809 -109.335190 57 35130ft 494kts
07-Oct-17 16:18 37.100058 -109.187878 57 35126ft 495kts
07-Oct-17 16:19 37.165700 -109.043492 56 35076ft 493kts
07-Oct-17 16:20 37.232948 -108.894958 56 35077ft 493kts
07-Oct-17 16:21 37.300401 -108.745229 56 35078ft 493kts
07-Oct-17 16:22 37.367769 -108.595006 56 35079ft 493kts
07-Oct-17 16:23 37.434739 -108.444981 57 35080ft 493kts
07-Oct-17 16:24 37.498247 -108.302085 57 35142ft 494kts
07-Oct-17 16:25 37.564748 -108.151747 57 35234ft 494kts
07-Oct-17 16:26 37.631679 -107.999637 57 35235ft 494kts
07-Oct-17 16:27 37.698051 -107.848265 57 35238ft 494kts
07-Oct-17 16:28 37.764238 -107.696493 57 35239ft 494kts
07-Oct-17 16:29 37.829882 -107.545273 57 35240ft 495kts
07-Oct-17 16:30 37.895607 -107.393150 57 35241ft 494kts
07-Oct-17 16:31 37.959462 -107.244900 59 35236ft 497kts
07-Oct-17 16:32 38.024918 -107.091826 58 35153ft 495kts
07-Oct-17 16:33 38.090234 -106.938499 58 35102ft 495kts
07-Oct-17 16:34 38.153261 -106.789896 59 35105ft 499kts
07-Oct-17 16:35 38.218547 -106.634892 58 33130ft 498kts
07-Oct-17 16:36 38.304665 -106.507454 39 30598ft 461kts
07-Oct-17 16:37 38.393132 -106.398092 39 28032ft 431kts
07-Oct-17 16:38 38.472880 -106.298917 39 27090ft 398kts
07-Oct-17 16:39 38.551848 -106.200422 39 27099ft 398kts
07-Oct-17 16:40 38.630365 -106.102103 39 27069ft 398kts
07-Oct-17 16:41 38.709081 -106.002868 40 24860ft 393kts
07-Oct-17 16:42 38.784893 -105.907083 39 22357ft 378kts
07-Oct-17 16:43 38.857882 -105.815013 43 20134ft 355kts
07-Oct-17 16:44 38.926321 -105.727819 43 19060ft 345kts
07-Oct-17 16:45 38.992584 -105.643285 42 17556ft 335kts
07-Oct-17 16:46 39.058739 -105.558737 42 17394ft 334kts
07-Oct-17 16:47 39.121905 -105.477748 42 17386ft 334kts
07-Oct-17 16:48 39.187339 -105.393961 42 17386ft 334kts
07-Oct-17 16:49 39.250841 -105.310043 49 17240ft 338kts
07-Oct-17 16:50 39.280440 -105.195129 72 15707ft 331kts
07-Oct-17 16:51 39.319747 -105.098048 38 14146ft 302kts
07-Oct-17 16:52 39.382985 -105.032950 38 12570ft 285kts
07-Oct-17 16:53 39.444246 -104.972258 38 11028ft 273kts
07-Oct-17 16:54 39.473704 -104.943675 38 10278ft 268kts
07-Oct-17 17:10 39.857987 -104.668794 359 5443ft 0kts
07-Oct-17 17:11 39.857987 -104.668794 359 5443ft 0kts
07-Oct-17 17:12 39.857987 -104.668794 359 5443ft 0kts
07-Oct-17 17:13 39.857987 -104.668794 359 5443ft 0kts
07-Oct-17 17:14 39.857987 -104.668794 359 5443ft 0kts

Navigation Log

Ident Type
Flight plan parsing failed, navigation log unavailable